sensor_id;sensor_type;location;lat;lon;timestamp;P1;durP1;ratioP1;P2;durP2;ratioP2
74636;SDS011;63141;54.616;39.754;2023-06-04T00:00:55;1.52;;;0.70;;
74636;SDS011;63141;54.616;39.754;2023-06-04T00:04:00;2.08;;;0.85;;
74636;SDS011;63141;54.616;39.754;2023-06-04T00:07:04;0.75;;;0.70;;
74636;SDS011;63141;54.616;39.754;2023-06-04T00:10:05;4.32;;;1.02;;
74636;SDS011;63141;54.616;39.754;2023-06-04T00:13:07;2.90;;;0.80;;
74636;SDS011;63141;54.616;39.754;2023-06-04T00:16:08;0.75;;;0.75;;
74636;SDS011;63141;54.616;39.754;2023-06-04T00:19:10;1.67;;;0.80;;
74636;SDS011;63141;54.616;39.754;2023-06-04T00:22:11;1.25;;;0.80;;
74636;SDS011;63141;54.616;39.754;2023-06-04T00:25:13;1.02;;;0.70;;
74636;SDS011;63141;54.616;39.754;2023-06-04T00:28:14;1.48;;;0.82;;
74636;SDS011;63141;54.616;39.754;2023-06-04T00:31:15;1.63;;;0.80;;
74636;SDS011;63141;54.616;39.754;2023-06-04T00:34:17;0.85;;;0.70;;
74636;SDS011;63141;54.616;39.754;2023-06-04T00:37:19;3.47;;;0.70;;
74636;SDS011;63141;54.616;39.754;2023-06-04T00:40:21;4.13;;;0.80;;
74636;SDS011;63141;54.616;39.754;2023-06-04T00:43:22;1.73;;;1.00;;
74636;SDS011;63141;54.616;39.754;2023-06-04T00:46:26;1.60;;;0.90;;
74636;SDS011;63141;54.616;39.754;2023-06-04T00:49:27;2.42;;;0.80;;
74636;SDS011;63141;54.616;39.754;2023-06-04T00:52:29;1.10;;;0.88;;
74636;SDS011;63141;54.616;39.754;2023-06-04T00:55:30;2.20;;;0.70;;
74636;SDS011;63141;54.616;39.754;2023-06-04T00:58:33;1.20;;;0.77;;
74636;SDS011;63141;54.616;39.754;2023-06-04T01:08:14;1.63;;;0.70;;
74636;SDS011;63141;54.616;39.754;2023-06-04T01:11:16;1.45;;;0.80;;
74636;SDS011;63141;54.616;39.754;2023-06-04T01:14:17;0.90;;;0.85;;
74636;SDS011;63141;54.616;39.754;2023-06-04T01:21:06;2.30;;;1.00;;
74636;SDS011;63141;54.616;39.754;2023-06-04T01:24:09;1.10;;;0.63;;
74636;SDS011;63141;54.616;39.754;2023-06-04T01:27:11;0.85;;;0.73;;
74636;SDS011;63141;54.616;39.754;2023-06-04T01:30:16;1.23;;;0.82;;
74636;SDS011;63141;54.616;39.754;2023-06-04T01:33:18;2.03;;;0.90;;
74636;SDS011;63141;54.616;39.754;2023-06-04T01:36:23;0.70;;;0.60;;
74636;SDS011;63141;54.616;39.754;2023-06-04T01:39:25;1.08;;;0.80;;
74636;SDS011;63141;54.616;39.754;2023-06-04T01:42:27;0.65;;;0.60;;
74636;SDS011;63141;54.616;39.754;2023-06-04T01:45:28;2.85;;;0.73;;
74636;SDS011;63141;54.616;39.754;2023-06-04T01:48:30;1.50;;;0.70;;
74636;SDS011;63141;54.616;39.754;2023-06-04T01:51:32;5.93;;;1.05;;
74636;SDS011;63141;54.616;39.754;2023-06-04T01:54:34;1.00;;;0.90;;
74636;SDS011;63141;54.616;39.754;2023-06-04T01:57:35;1.98;;;0.68;;
74636;SDS011;63141;54.616;39.754;2023-06-04T02:00:40;0.63;;;0.60;;
74636;SDS011;63141;54.616;39.754;2023-06-04T02:03:42;0.80;;;0.68;;
74636;SDS011;63141;54.616;39.754;2023-06-04T02:06:45;0.68;;;0.60;;
74636;SDS011;63141;54.616;39.754;2023-06-04T02:09:47;1.10;;;0.80;;
74636;SDS011;63141;54.616;39.754;2023-06-04T02:13:01;1.88;;;0.82;;
74636;SDS011;63141;54.616;39.754;2023-06-04T02:16:04;1.42;;;0.63;;
74636;SDS011;63141;54.616;39.754;2023-06-04T02:19:05;2.38;;;0.50;;
74636;SDS011;63141;54.616;39.754;2023-06-04T02:22:06;1.05;;;0.60;;
74636;SDS011;63141;54.616;39.754;2023-06-04T02:25:08;1.15;;;0.77;;
74636;SDS011;63141;54.616;39.754;2023-06-04T02:28:10;1.15;;;0.70;;
74636;SDS011;63141;54.616;39.754;2023-06-04T02:31:12;1.98;;;0.73;;
74636;SDS011;63141;54.616;39.754;2023-06-04T02:34:13;1.80;;;0.82;;
74636;SDS011;63141;54.616;39.754;2023-06-04T02:37:14;5.00;;;0.70;;
74636;SDS011;63141;54.616;39.754;2023-06-04T02:40:16;1.00;;;0.70;;
74636;SDS011;63141;54.616;39.754;2023-06-04T02:43:19;1.63;;;0.70;;
74636;SDS011;63141;54.616;39.754;2023-06-04T02:46:20;2.22;;;0.60;;
74636;SDS011;63141;54.616;39.754;2023-06-04T02:49:21;1.30;;;0.60;;
74636;SDS011;63141;54.616;39.754;2023-06-04T02:52:23;2.67;;;0.70;;
74636;SDS011;63141;54.616;39.754;2023-06-04T02:55:26;1.52;;;0.63;;
74636;SDS011;63141;54.616;39.754;2023-06-04T02:58:27;1.42;;;0.60;;
74636;SDS011;63141;54.616;39.754;2023-06-04T03:01:32;0.98;;;0.70;;
74636;SDS011;63141;54.616;39.754;2023-06-04T03:04:33;0.80;;;0.77;;
74636;SDS011;63141;54.616;39.754;2023-06-04T03:07:39;1.25;;;0.60;;
74636;SDS011;63141;54.616;39.754;2023-06-04T03:10:42;1.42;;;0.75;;
74636;SDS011;63141;54.616;39.754;2023-06-04T03:13:43;1.13;;;0.65;;
74636;SDS011;63141;54.616;39.754;2023-06-04T03:16:44;1.45;;;0.60;;
74636;SDS011;63141;54.616;39.754;2023-06-04T03:19:46;1.48;;;0.68;;
74636;SDS011;63141;54.616;39.754;2023-06-04T03:22:49;0.70;;;0.70;;
74636;SDS011;63141;54.616;39.754;2023-06-04T03:25:52;1.02;;;0.80;;
74636;SDS011;63141;54.616;39.754;2023-06-04T03:28:53;1.05;;;0.60;;
74636;SDS011;63141;54.616;39.754;2023-06-04T03:31:56;0.75;;;0.50;;
74636;SDS011;63141;54.616;39.754;2023-06-04T03:34:59;2.05;;;0.73;;
74636;SDS011;63141;54.616;39.754;2023-06-04T03:38:01;1.92;;;0.60;;
74636;SDS011;63141;54.616;39.754;2023-06-04T03:41:03;0.82;;;0.70;;
74636;SDS011;63141;54.616;39.754;2023-06-04T03:44:05;2.03;;;0.70;;
74636;SDS011;63141;54.616;39.754;2023-06-04T03:47:06;1.25;;;0.90;;
74636;SDS011;63141;54.616;39.754;2023-06-04T03:50:08;1.08;;;0.60;;
74636;SDS011;63141;54.616;39.754;2023-06-04T03:53:10;0.88;;;0.60;;
74636;SDS011;63141;54.616;39.754;2023-06-04T03:56:12;1.15;;;0.63;;
74636;SDS011;63141;54.616;39.754;2023-06-04T03:59:14;2.50;;;0.65;;
74636;SDS011;63141;54.616;39.754;2023-06-04T04:02:18;1.92;;;0.60;;
74636;SDS011;63141;54.616;39.754;2023-06-04T04:05:20;3.30;;;0.70;;
74636;SDS011;63141;54.616;39.754;2023-06-04T04:08:25;1.02;;;0.77;;
74636;SDS011;63141;54.616;39.754;2023-06-04T04:11:27;6.47;;;0.95;;
74636;SDS011;63141;54.616;39.754;2023-06-04T04:14:29;1.70;;;1.10;;
74636;SDS011;63141;54.616;39.754;2023-06-04T04:17:31;1.05;;;0.73;;
74636;SDS011;63141;54.616;39.754;2023-06-04T04:20:32;1.42;;;0.88;;
74636;SDS011;63141;54.616;39.754;2023-06-04T04:23:39;1.02;;;0.85;;
74636;SDS011;63141;54.616;39.754;2023-06-04T04:26:44;1.10;;;0.90;;
74636;SDS011;63141;54.616;39.754;2023-06-04T04:29:45;1.33;;;0.70;;
74636;SDS011;63141;54.616;39.754;2023-06-04T04:32:49;3.22;;;0.82;;
74636;SDS011;63141;54.616;39.754;2023-06-04T04:35:55;0.95;;;0.80;;
74636;SDS011;63141;54.616;39.754;2023-06-04T04:38:58;2.53;;;0.95;;
74636;SDS011;63141;54.616;39.754;2023-06-04T04:42:07;0.93;;;0.70;;
74636;SDS011;63141;54.616;39.754;2023-06-04T04:45:08;0.93;;;0.70;;
74636;SDS011;63141;54.616;39.754;2023-06-04T04:48:11;1.88;;;0.70;;
74636;SDS011;63141;54.616;39.754;2023-06-04T04:51:14;1.65;;;0.90;;
74636;SDS011;63141;54.616;39.754;2023-06-04T04:54:16;0.77;;;0.70;;
74636;SDS011;63141;54.616;39.754;2023-06-04T04:57:18;0.68;;;0.65;;
74636;SDS011;63141;54.616;39.754;2023-06-04T05:00:25;0.63;;;0.60;;
74636;SDS011;63141;54.616;39.754;2023-06-04T05:03:29;1.10;;;0.65;;
74636;SDS011;63141;54.616;39.754;2023-06-04T05:06:33;1.15;;;0.60;;
74636;SDS011;63141;54.616;39.754;2023-06-04T05:09:35;2.75;;;0.70;;
74636;SDS011;63141;54.616;39.754;2023-06-04T05:12:37;0.93;;;0.80;;
74636;SDS011;63141;54.616;39.754;2023-06-04T05:15:40;2.03;;;0.70;;
74636;SDS011;63141;54.616;39.754;2023-06-04T05:18:44;1.90;;;0.73;;
74636;SDS011;63141;54.616;39.754;2023-06-04T05:21:49;0.90;;;0.77;;
74636;SDS011;63141;54.616;39.754;2023-06-04T05:24:51;2.25;;;0.80;;
74636;SDS011;63141;54.616;39.754;2023-06-04T05:27:52;1.17;;;0.70;;
74636;SDS011;63141;54.616;39.754;2023-06-04T05:30:55;2.47;;;0.63;;
74636;SDS011;63141;54.616;39.754;2023-06-04T05:34:01;1.03;;;0.70;;
74636;SDS011;63141;54.616;39.754;2023-06-04T05:37:06;1.33;;;0.80;;
74636;SDS011;63141;54.616;39.754;2023-06-04T05:40:10;1.38;;;0.80;;
74636;SDS011;63141;54.616;39.754;2023-06-04T05:43:12;0.95;;;0.50;;
74636;SDS011;63141;54.616;39.754;2023-06-04T05:46:13;1.10;;;0.77;;
74636;SDS011;63141;54.616;39.754;2023-06-04T05:49:15;0.70;;;0.60;;
74636;SDS011;63141;54.616;39.754;2023-06-04T05:52:18;1.35;;;0.60;;
74636;SDS011;63141;54.616;39.754;2023-06-04T05:55:21;1.73;;;0.73;;
74636;SDS011;63141;54.616;39.754;2023-06-04T05:58:22;1.65;;;0.73;;
74636;SDS011;63141;54.616;39.754;2023-06-04T06:01:26;1.65;;;0.73;;
74636;SDS011;63141;54.616;39.754;2023-06-04T06:04:29;1.92;;;0.70;;
74636;SDS011;63141;54.616;39.754;2023-06-04T06:07:33;2.50;;;0.63;;
74636;SDS011;63141;54.616;39.754;2023-06-04T06:10:35;1.77;;;0.80;;
74636;SDS011;63141;54.616;39.754;2023-06-04T06:13:37;1.25;;;0.82;;
74636;SDS011;63141;54.616;39.754;2023-06-04T06:16:39;1.10;;;0.60;;
74636;SDS011;63141;54.616;39.754;2023-06-04T06:19:41;0.90;;;0.63;;
74636;SDS011;63141;54.616;39.754;2023-06-04T06:22:42;1.20;;;0.80;;
74636;SDS011;63141;54.616;39.754;2023-06-04T06:25:44;1.58;;;0.80;;
74636;SDS011;63141;54.616;39.754;2023-06-04T06:28:51;1.38;;;0.80;;
74636;SDS011;63141;54.616;39.754;2023-06-04T06:31:54;2.67;;;0.70;;
74636;SDS011;63141;54.616;39.754;2023-06-04T06:34:56;3.38;;;0.80;;
74636;SDS011;63141;54.616;39.754;2023-06-04T06:37:57;1.20;;;0.60;;
74636;SDS011;63141;54.616;39.754;2023-06-04T06:41:01;0.98;;;0.60;;
74636;SDS011;63141;54.616;39.754;2023-06-04T06:44:03;2.20;;;0.80;;
74636;SDS011;63141;54.616;39.754;2023-06-04T06:47:04;0.98;;;0.68;;
74636;SDS011;63141;54.616;39.754;2023-06-04T06:50:06;1.52;;;0.60;;
74636;SDS011;63141;54.616;39.754;2023-06-04T06:53:08;0.60;;;0.50;;
74636;SDS011;63141;54.616;39.754;2023-06-04T06:56:09;4.20;;;0.90;;
74636;SDS011;63141;54.616;39.754;2023-06-04T06:59:10;0.95;;;0.70;;
74636;SDS011;63141;54.616;39.754;2023-06-04T07:02:17;2.47;;;0.80;;
74636;SDS011;63141;54.616;39.754;2023-06-04T07:05:19;3.78;;;0.60;;
74636;SDS011;63141;54.616;39.754;2023-06-04T07:08:28;1.55;;;0.80;;
74636;SDS011;63141;54.616;39.754;2023-06-04T07:11:36;1.65;;;0.70;;
74636;SDS011;63141;54.616;39.754;2023-06-04T07:14:37;0.88;;;0.68;;
74636;SDS011;63141;54.616;39.754;2023-06-04T07:17:39;2.00;;;0.80;;
74636;SDS011;63141;54.616;39.754;2023-06-04T07:20:40;0.70;;;0.60;;
74636;SDS011;63141;54.616;39.754;2023-06-04T07:23:44;1.02;;;0.70;;
74636;SDS011;63141;54.616;39.754;2023-06-04T07:29:52;3.25;;;0.50;;
74636;SDS011;63141;54.616;39.754;2023-06-04T07:32:57;2.58;;;0.75;;
74636;SDS011;63141;54.616;39.754;2023-06-04T07:36:07;1.23;;;0.50;;
74636;SDS011;63141;54.616;39.754;2023-06-04T07:39:14;2.97;;;0.63;;
74636;SDS011;63141;54.616;39.754;2023-06-04T07:42:16;1.73;;;0.73;;
74636;SDS011;63141;54.616;39.754;2023-06-04T07:45:17;3.75;;;0.68;;
74636;SDS011;63141;54.616;39.754;2023-06-04T07:48:31;0.70;;;0.63;;
74636;SDS011;63141;54.616;39.754;2023-06-04T07:51:32;2.17;;;0.75;;
74636;SDS011;63141;54.616;39.754;2023-06-04T07:54:36;2.15;;;0.75;;
74636;SDS011;63141;54.616;39.754;2023-06-04T07:57:42;4.05;;;0.88;;
74636;SDS011;63141;54.616;39.754;2023-06-04T08:01:01;2.67;;;0.60;;
74636;SDS011;63141;54.616;39.754;2023-06-04T08:04:15;1.33;;;0.77;;
74636;SDS011;63141;54.616;39.754;2023-06-04T08:07:19;2.00;;;0.60;;
74636;SDS011;63141;54.616;39.754;2023-06-04T08:10:24;1.95;;;0.70;;
74636;SDS011;63141;54.616;39.754;2023-06-04T08:13:31;1.27;;;0.50;;
74636;SDS011;63141;54.616;39.754;2023-06-04T08:16:32;0.85;;;0.50;;
74636;SDS011;63141;54.616;39.754;2023-06-04T08:19:45;1.30;;;0.70;;
74636;SDS011;63141;54.616;39.754;2023-06-04T08:22:53;5.00;;;0.85;;
74636;SDS011;63141;54.616;39.754;2023-06-04T08:26:01;1.85;;;0.95;;
74636;SDS011;63141;54.616;39.754;2023-06-04T08:32:55;0.73;;;0.43;;
74636;SDS011;63141;54.616;39.754;2023-06-04T08:36:14;2.15;;;0.68;;
74636;SDS011;63141;54.616;39.754;2023-06-04T08:39:19;1.20;;;0.68;;
74636;SDS011;63141;54.616;39.754;2023-06-04T08:42:30;2.03;;;0.57;;
74636;SDS011;63141;54.616;39.754;2023-06-04T08:45:49;2.42;;;0.55;;
74636;SDS011;63141;54.616;39.754;2023-06-04T08:49:07;1.67;;;0.43;;
74636;SDS011;63141;54.616;39.754;2023-06-04T08:52:15;1.17;;;0.45;;
74636;SDS011;63141;54.616;39.754;2023-06-04T08:55:19;3.17;;;0.68;;
74636;SDS011;63141;54.616;39.754;2023-06-04T08:58:25;1.10;;;0.68;;
74636;SDS011;63141;54.616;39.754;2023-06-04T09:01:31;0.80;;;0.57;;
74636;SDS011;63141;54.616;39.754;2023-06-04T09:04:43;0.50;;;0.50;;
74636;SDS011;63141;54.616;39.754;2023-06-04T09:07:52;1.05;;;0.60;;
74636;SDS011;63141;54.616;39.754;2023-06-04T09:10:55;1.65;;;0.70;;
74636;SDS011;63141;54.616;39.754;2023-06-04T09:13:58;0.50;;;0.43;;
74636;SDS011;63141;54.616;39.754;2023-06-04T09:17:04;0.80;;;0.60;;
74636;SDS011;63141;54.616;39.754;2023-06-04T09:20:20;1.98;;;0.52;;
74636;SDS011;63141;54.616;39.754;2023-06-04T09:23:46;0.90;;;0.40;;
74636;SDS011;63141;54.616;39.754;2023-06-04T09:26:54;1.55;;;0.60;;
74636;SDS011;63141;54.616;39.754;2023-06-04T09:29:56;0.65;;;0.55;;
74636;SDS011;63141;54.616;39.754;2023-06-04T09:33:08;0.65;;;0.50;;
74636;SDS011;63141;54.616;39.754;2023-06-04T09:36:31;1.67;;;0.60;;
74636;SDS011;63141;54.616;39.754;2023-06-04T09:39:57;0.52;;;0.40;;
74636;SDS011;63141;54.616;39.754;2023-06-04T09:42:58;1.30;;;0.50;;
74636;SDS011;63141;54.616;39.754;2023-06-04T09:49:26;0.50;;;0.40;;
74636;SDS011;63141;54.616;39.754;2023-06-04T09:52:50;1.77;;;0.63;;
74636;SDS011;63141;54.616;39.754;2023-06-04T09:55:57;0.88;;;0.55;;
74636;SDS011;63141;54.616;39.754;2023-06-04T09:59:14;0.68;;;0.55;;
74636;SDS011;63141;54.616;39.754;2023-06-04T10:02:19;0.88;;;0.40;;
74636;SDS011;63141;54.616;39.754;2023-06-04T10:05:25;2.15;;;0.50;;
74636;SDS011;63141;54.616;39.754;2023-06-04T10:08:48;0.57;;;0.50;;
74636;SDS011;63141;54.616;39.754;2023-06-04T10:11:53;1.58;;;0.65;;
74636;SDS011;63141;54.616;39.754;2023-06-04T10:15:08;0.80;;;0.55;;
74636;SDS011;63141;54.616;39.754;2023-06-04T10:18:14;1.23;;;0.50;;
74636;SDS011;63141;54.616;39.754;2023-06-04T10:21:24;1.20;;;0.63;;
74636;SDS011;63141;54.616;39.754;2023-06-04T10:24:33;2.00;;;0.77;;
74636;SDS011;63141;54.616;39.754;2023-06-04T10:27:53;1.52;;;0.70;;
74636;SDS011;63141;54.616;39.754;2023-06-04T10:30:57;1.20;;;0.70;;
74636;SDS011;63141;54.616;39.754;2023-06-04T10:34:08;1.08;;;0.70;;
74636;SDS011;63141;54.616;39.754;2023-06-04T10:37:19;0.82;;;0.40;;
74636;SDS011;63141;54.616;39.754;2023-06-04T10:40:31;1.70;;;0.47;;
74636;SDS011;63141;54.616;39.754;2023-06-04T10:43:34;0.70;;;0.55;;
74636;SDS011;63141;54.616;39.754;2023-06-04T10:47:01;0.40;;;0.38;;
74636;SDS011;63141;54.616;39.754;2023-06-04T10:50:12;1.92;;;0.50;;
74636;SDS011;63141;54.616;39.754;2023-06-04T10:53:23;2.05;;;0.60;;
74636;SDS011;63141;54.616;39.754;2023-06-04T10:56:31;2.35;;;0.55;;
74636;SDS011;63141;54.616;39.754;2023-06-04T10:59:56;1.85;;;0.80;;
74636;SDS011;63141;54.616;39.754;2023-06-04T11:03:12;3.13;;;0.80;;
74636;SDS011;63141;54.616;39.754;2023-06-04T11:06:23;2.17;;;0.80;;
74636;SDS011;63141;54.616;39.754;2023-06-04T11:09:40;7.30;;;0.95;;
74636;SDS011;63141;54.616;39.754;2023-06-04T11:12:59;9.98;;;1.65;;
74636;SDS011;63141;54.616;39.754;2023-06-04T11:16:14;6.05;;;1.60;;
74636;SDS011;63141;54.616;39.754;2023-06-04T11:19:37;13.75;;;1.83;;
74636;SDS011;63141;54.616;39.754;2023-06-04T11:22:53;8.43;;;1.70;;
74636;SDS011;63141;54.616;39.754;2023-06-04T11:26:05;8.98;;;2.00;;
74636;SDS011;63141;54.616;39.754;2023-06-04T11:29:08;10.80;;;2.00;;
74636;SDS011;63141;54.616;39.754;2023-06-04T11:32:20;12.18;;;1.75;;
74636;SDS011;63141;54.616;39.754;2023-06-04T11:35:31;5.38;;;1.40;;
74636;SDS011;63141;54.616;39.754;2023-06-04T11:38:53;8.60;;;1.50;;
74636;SDS011;63141;54.616;39.754;2023-06-04T11:42:15;6.53;;;1.50;;
74636;SDS011;63141;54.616;39.754;2023-06-04T11:45:26;11.80;;;1.80;;
74636;SDS011;63141;54.616;39.754;2023-06-04T11:48:33;7.20;;;1.58;;
74636;SDS011;63141;54.616;39.754;2023-06-04T11:51:50;9.02;;;1.60;;
74636;SDS011;63141;54.616;39.754;2023-06-04T11:54:55;9.45;;;1.48;;
74636;SDS011;63141;54.616;39.754;2023-06-04T11:58:08;5.18;;;1.80;;
74636;SDS011;63141;54.616;39.754;2023-06-04T12:01:25;3.65;;;0.88;;
74636;SDS011;63141;54.616;39.754;2023-06-04T12:04:36;4.57;;;1.33;;
74636;SDS011;63141;54.616;39.754;2023-06-04T12:07:49;5.82;;;1.10;;
74636;SDS011;63141;54.616;39.754;2023-06-04T12:11:04;3.13;;;1.00;;
74636;SDS011;63141;54.616;39.754;2023-06-04T12:14:18;2.13;;;1.00;;
74636;SDS011;63141;54.616;39.754;2023-06-04T12:17:25;3.92;;;1.20;;
74636;SDS011;63141;54.616;39.754;2023-06-04T12:20:36;3.78;;;1.02;;
74636;SDS011;63141;54.616;39.754;2023-06-04T12:23:41;2.72;;;0.90;;
74636;SDS011;63141;54.616;39.754;2023-06-04T12:27:10;6.50;;;1.38;;
74636;SDS011;63141;54.616;39.754;2023-06-04T12:30:20;5.25;;;1.05;;
74636;SDS011;63141;54.616;39.754;2023-06-04T12:33:24;4.82;;;1.15;;
74636;SDS011;63141;54.616;39.754;2023-06-04T12:36:37;3.83;;;1.00;;
74636;SDS011;63141;54.616;39.754;2023-06-04T12:39:45;8.02;;;1.15;;
74636;SDS011;63141;54.616;39.754;2023-06-04T12:42:50;1.80;;;0.82;;
74636;SDS011;63141;54.616;39.754;2023-06-04T12:45:57;2.25;;;0.88;;
74636;SDS011;63141;54.616;39.754;2023-06-04T12:49:05;4.75;;;0.80;;
74636;SDS011;63141;54.616;39.754;2023-06-04T12:52:18;2.42;;;0.73;;
74636;SDS011;63141;54.616;39.754;2023-06-04T12:55:26;3.85;;;0.80;;
74636;SDS011;63141;54.616;39.754;2023-06-04T12:58:30;2.10;;;0.73;;
74636;SDS011;63141;54.616;39.754;2023-06-04T13:01:43;3.67;;;0.82;;
74636;SDS011;63141;54.616;39.754;2023-06-04T13:04:47;3.08;;;0.80;;
74636;SDS011;63141;54.616;39.754;2023-06-04T13:08:04;2.83;;;0.73;;
74636;SDS011;63141;54.616;39.754;2023-06-04T13:11:08;2.88;;;0.85;;
74636;SDS011;63141;54.616;39.754;2023-06-04T13:14:16;2.25;;;0.70;;
74636;SDS011;63141;54.616;39.754;2023-06-04T13:17:18;2.55;;;0.70;;
74636;SDS011;63141;54.616;39.754;2023-06-04T13:20:19;5.70;;;0.80;;
74636;SDS011;63141;54.616;39.754;2023-06-04T13:23:26;9.95;;;0.80;;
74636;SDS011;63141;54.616;39.754;2023-06-04T13:26:52;9.52;;;1.05;;
74636;SDS011;63141;54.616;39.754;2023-06-04T13:29:59;4.20;;;0.73;;
74636;SDS011;63141;54.616;39.754;2023-06-04T13:33:18;7.25;;;0.98;;
74636;SDS011;63141;54.616;39.754;2023-06-04T13:36:30;3.95;;;0.68;;
74636;SDS011;63141;54.616;39.754;2023-06-04T13:39:43;1.10;;;0.60;;
74636;SDS011;63141;54.616;39.754;2023-06-04T13:42:53;2.00;;;0.60;;
74636;SDS011;63141;54.616;39.754;2023-06-04T13:46:09;4.55;;;0.82;;
74636;SDS011;63141;54.616;39.754;2023-06-04T13:49:35;1.45;;;0.75;;
74636;SDS011;63141;54.616;39.754;2023-06-04T13:52:47;0.70;;;0.52;;
74636;SDS011;63141;54.616;39.754;2023-06-04T13:56:06;2.45;;;0.63;;
74636;SDS011;63141;54.616;39.754;2023-06-04T13:59:19;2.85;;;0.98;;
74636;SDS011;63141;54.616;39.754;2023-06-04T14:02:35;5.73;;;0.70;;
74636;SDS011;63141;54.616;39.754;2023-06-04T14:05:44;2.42;;;0.60;;
74636;SDS011;63141;54.616;39.754;2023-06-04T14:08:46;2.78;;;0.88;;
74636;SDS011;63141;54.616;39.754;2023-06-04T14:11:59;1.92;;;0.80;;
74636;SDS011;63141;54.616;39.754;2023-06-04T14:15:01;3.08;;;1.10;;
74636;SDS011;63141;54.616;39.754;2023-06-04T14:18:17;8.60;;;1.33;;
74636;SDS011;63141;54.616;39.754;2023-06-04T14:21:26;5.68;;;1.40;;
74636;SDS011;63141;54.616;39.754;2023-06-04T14:24:36;4.45;;;1.50;;
74636;SDS011;63141;54.616;39.754;2023-06-04T14:27:49;3.92;;;1.70;;
74636;SDS011;63141;54.616;39.754;2023-06-04T14:31:09;5.07;;;1.58;;
74636;SDS011;63141;54.616;39.754;2023-06-04T14:34:11;5.30;;;1.17;;
74636;SDS011;63141;54.616;39.754;2023-06-04T14:37:12;2.80;;;1.08;;
74636;SDS011;63141;54.616;39.754;2023-06-04T14:40:21;3.92;;;1.10;;
74636;SDS011;63141;54.616;39.754;2023-06-04T14:43:29;5.05;;;1.00;;
74636;SDS011;63141;54.616;39.754;2023-06-04T14:46:42;1.63;;;1.00;;
74636;SDS011;63141;54.616;39.754;2023-06-04T14:49:49;6.20;;;1.02;;
74636;SDS011;63141;54.616;39.754;2023-06-04T14:53:05;3.03;;;0.90;;
74636;SDS011;63141;54.616;39.754;2023-06-04T14:56:12;2.42;;;0.80;;
74636;SDS011;63141;54.616;39.754;2023-06-04T14:59:28;4.53;;;0.60;;
74636;SDS011;63141;54.616;39.754;2023-06-04T15:02:38;2.08;;;0.60;;
74636;SDS011;63141;54.616;39.754;2023-06-04T15:05:54;1.35;;;0.60;;
74636;SDS011;63141;54.616;39.754;2023-06-04T15:09:08;3.63;;;0.70;;
74636;SDS011;63141;54.616;39.754;2023-06-04T15:12:17;1.48;;;0.77;;
74636;SDS011;63141;54.616;39.754;2023-06-04T15:15:20;1.90;;;0.80;;
74636;SDS011;63141;54.616;39.754;2023-06-04T15:18:30;2.13;;;0.60;;
74636;SDS011;63141;54.616;39.754;2023-06-04T15:21:40;1.80;;;0.60;;
74636;SDS011;63141;54.616;39.754;2023-06-04T15:24:50;3.25;;;0.80;;
74636;SDS011;63141;54.616;39.754;2023-06-04T15:27:51;2.25;;;1.15;;
74636;SDS011;63141;54.616;39.754;2023-06-04T15:31:13;13.75;;;4.47;;
74636;SDS011;63141;54.616;39.754;2023-06-04T15:34:20;151.52;;;38.08;;
74636;SDS011;63141;54.616;39.754;2023-06-04T15:37:30;334.25;;;72.68;;
74636;SDS011;63141;54.616;39.754;2023-06-04T15:40:47;1380.85;;;494.80;;
74636;SDS011;63141;54.616;39.754;2023-06-04T15:44:01;1351.78;;;474.48;;
74636;SDS011;63141;54.616;39.754;2023-06-04T15:47:11;962.65;;;328.10;;
74636;SDS011;63141;54.616;39.754;2023-06-04T15:50:12;1049.68;;;353.77;;
74636;SDS011;63141;54.616;39.754;2023-06-04T15:53:43;804.60;;;257.13;;
74636;SDS011;63141;54.616;39.754;2023-06-04T15:56:45;747.83;;;242.77;;
74636;SDS011;63141;54.616;39.754;2023-06-04T15:59:53;646.78;;;193.82;;
74636;SDS011;63141;54.616;39.754;2023-06-04T16:03:04;689.88;;;234.65;;
74636;SDS011;63141;54.616;39.754;2023-06-04T16:06:35;638.00;;;223.05;;
74636;SDS011;63141;54.616;39.754;2023-06-04T16:10:03;579.85;;;194.02;;
74636;SDS011;63141;54.616;39.754;2023-06-04T16:13:29;583.38;;;210.32;;
74636;SDS011;63141;54.616;39.754;2023-06-04T16:16:39;490.95;;;156.30;;
74636;SDS011;63141;54.616;39.754;2023-06-04T16:20:02;482.55;;;154.38;;
74636;SDS011;63141;54.616;39.754;2023-06-04T16:23:19;439.85;;;131.75;;
74636;SDS011;63141;54.616;39.754;2023-06-04T16:26:30;495.98;;;169.13;;
74636;SDS011;63141;54.616;39.754;2023-06-04T16:29:55;334.40;;;97.03;;
74636;SDS011;63141;54.616;39.754;2023-06-04T16:33:09;379.42;;;116.60;;
74636;SDS011;63141;54.616;39.754;2023-06-04T16:36:20;391.17;;;117.68;;
74636;SDS011;63141;54.616;39.754;2023-06-04T16:39:33;354.10;;;109.95;;
74636;SDS011;63141;54.616;39.754;2023-06-04T16:43:02;289.58;;;87.93;;
74636;SDS011;63141;54.616;39.754;2023-06-04T16:46:15;329.15;;;101.05;;
74636;SDS011;63141;54.616;39.754;2023-06-04T16:49:47;286.55;;;91.47;;
74636;SDS011;63141;54.616;39.754;2023-06-04T16:53:00;255.30;;;82.70;;
74636;SDS011;63141;54.616;39.754;2023-06-04T16:56:05;243.57;;;77.65;;
74636;SDS011;63141;54.616;39.754;2023-06-04T16:59:14;257.10;;;79.78;;
74636;SDS011;63141;54.616;39.754;2023-06-04T17:02:31;213.10;;;70.40;;
74636;SDS011;63141;54.616;39.754;2023-06-04T17:05:52;210.32;;;68.28;;
74636;SDS011;63141;54.616;39.754;2023-06-04T17:09:05;205.25;;;63.20;;
74636;SDS011;63141;54.616;39.754;2023-06-04T17:12:24;193.82;;;60.65;;
74636;SDS011;63141;54.616;39.754;2023-06-04T17:15:40;112.15;;;36.45;;
74636;SDS011;63141;54.616;39.754;2023-06-04T17:19:08;92.53;;;32.97;;
74636;SDS011;63141;54.616;39.754;2023-06-04T17:22:16;123.43;;;41.97;;
74636;SDS011;63141;54.616;39.754;2023-06-04T17:25:27;96.72;;;35.42;;
74636;SDS011;63141;54.616;39.754;2023-06-04T17:28:37;88.10;;;30.23;;
74636;SDS011;63141;54.616;39.754;2023-06-04T17:31:44;83.78;;;30.55;;
74636;SDS011;63141;54.616;39.754;2023-06-04T17:35:13;830.15;;;542.05;;
74636;SDS011;63141;54.616;39.754;2023-06-04T17:38:48;55.85;;;22.48;;
74636;SDS011;63141;54.616;39.754;2023-06-04T17:42:07;61.00;;;24.35;;
74636;SDS011;63141;54.616;39.754;2023-06-04T17:45:17;76.13;;;27.77;;
74636;SDS011;63141;54.616;39.754;2023-06-04T17:48:30;1999.90;;;999.90;;
74636;SDS011;63141;54.616;39.754;2023-06-04T17:51:32;57.35;;;24.33;;
74636;SDS011;63141;54.616;39.754;2023-06-04T17:54:39;558.75;;;258.42;;
74636;SDS011;63141;54.616;39.754;2023-06-04T17:57:55;49.40;;;21.63;;
74636;SDS011;63141;54.616;39.754;2023-06-04T18:01:11;47.42;;;18.15;;
74636;SDS011;63141;54.616;39.754;2023-06-04T18:04:45;55.33;;;19.67;;
74636;SDS011;63141;54.616;39.754;2023-06-04T18:07:59;34.13;;;17.02;;
74636;SDS011;63141;54.616;39.754;2023-06-04T18:11:24;36.90;;;14.18;;
74636;SDS011;63141;54.616;39.754;2023-06-04T18:14:35;31.95;;;14.13;;
74636;SDS011;63141;54.616;39.754;2023-06-04T18:17:39;31.73;;;12.90;;
74636;SDS011;63141;54.616;39.754;2023-06-04T18:20:47;76.68;;;29.90;;
74636;SDS011;63141;54.616;39.754;2023-06-04T18:24:04;36.28;;;14.70;;
74636;SDS011;63141;54.616;39.754;2023-06-04T18:27:05;31.02;;;13.23;;
74636;SDS011;63141;54.616;39.754;2023-06-04T18:30:07;28.98;;;12.57;;
74636;SDS011;63141;54.616;39.754;2023-06-04T18:33:26;30.30;;;12.30;;
74636;SDS011;63141;54.616;39.754;2023-06-04T18:36:30;152.90;;;80.35;;
74636;SDS011;63141;54.616;39.754;2023-06-04T18:39:32;25.95;;;10.98;;
74636;SDS011;63141;54.616;39.754;2023-06-04T18:42:40;24.13;;;11.05;;
74636;SDS011;63141;54.616;39.754;2023-06-04T18:45:59;24.85;;;10.40;;
74636;SDS011;63141;54.616;39.754;2023-06-04T18:49:16;25.88;;;10.48;;